Skip Navigation LinksHome page > Weather > Current weather Skip Navigation Links

Current Weather

Philadelphia Intl, Philadelphia

For information only: do not use for flight planning or navigation.
Latest weather
Observation time Sunday, May 26, 2019 11:54 AM EDT
Local time Sunday, May 26, 2019 12:20 PM EDT
Flight conditions Visual Meteorological Conditions
Winds
Wind direction West (270°)
Wind speed 9 mph
Visibility 10 mi.
Sky condition
Ceiling 25,000 ft. broken clouds
Cloud layer few clouds 4,800 ft.
Cloud layer broken clouds 25,000 ft.
Temperature 83°F
Dewpoint 61°F
Altimeter 29.98 in.Hg
Derived measurements
Relative humidity 48%
Heat index 83°F
Density altitude 1753 ft.
Sea-level pressure 29.97 in.Hg
Remarks
Automated weather observing station with precipitation discriminator.
METAR KPHL 261554Z 27008KT 10SM FEW048 BKN250 28/16 A2998 RMK AO2 SLP150 T02830161

Settings

Location code

InnerDrive.Weather 4.0.6770.0 Release CLR 4.0.30319.42000
Copyright ©2018 Inner Drive Technology. All rights reserved. Portions Copyright ©1986-2018 David Braverman.

Find weather

Site navigation


Skip Navigation Links

Place info

Page info

PayPal - The safer, easier way to pay online!

Return home.

Copyright ©2019 Inner Drive Technology. Purveyors of fine, hand-crafted computer software. Page printed 2019-05-26T16:20:41 UTC.